Decoded Metar for KAID (ANDERSON MUNICIP in IN, USA) (IATA:AID) | Meteo·Mobile Aviation Weather
aviador You're here:

KAID Decoded Metar

ANDERSON MUNICIP in IN, USA
Report Time2019-09-21 08:55:00
UTC Time2019-09-21 08:47:32
Flight Rules vfr VFR
Wind210° at 04 kt
W.Decomp.*RWY 18: 3.4 kt HW 2.2 kt RCW
RWY 30: 0.2 kt HW 4 kt LCW
Visibility9999 m
Phenomena:N/A
Clouds:N/A
Expected CloudBase > 1,200 ft AGL from Temp-Dew spread
CeilingNone
Temp22°C (ISA +9)
Dew Point19°C (83% RH)
QNH1022 hPa
Density Alt1,939 ft
Elevation919 ft
Report Wrong Elevation
Raw Report
KAID 210855Z AUTO 21004KT 10SM CLR 22/19 A3019 RMK AO2
T02150191=

Extra information for KAID:More info

Metar Taf Metar & Taf Last 4 Metars F.Rules Stats Wind Profile Meteogram Temp Stats Airport Information Weather charts Add Link Nearby VenuesMetar ALERT Operation Metar Decoded Social comments

AIRNAV info for KAID